createdAt,value
2019-05-20T00:00:17.208Z,16.96
2019-05-20T00:03:22.096Z,16.97
2019-05-20T00:06:26.838Z,17.08
2019-05-20T00:09:31.676Z,16.98
2019-05-20T00:12:36.423Z,17.07
2019-05-20T00:15:41.177Z,17.02
2019-05-20T00:18:46.930Z,17.00
2019-05-20T00:21:51.707Z,16.95
2019-05-20T00:24:56.698Z,16.96
2019-05-20T00:28:01.811Z,17.05
2019-05-20T00:31:06.566Z,17.00
2019-05-20T00:34:11.353Z,17.03
2019-05-20T00:37:16.631Z,16.98
2019-05-20T00:40:21.680Z,16.98
2019-05-20T00:43:28.102Z,16.96
2019-05-20T00:46:32.831Z,17.02
2019-05-20T00:49:37.847Z,16.94
2019-05-20T00:52:42.967Z,16.82
2019-05-20T00:55:47.942Z,16.73
2019-05-20T00:58:52.685Z,16.71
2019-05-20T01:01:57.702Z,16.66
2019-05-20T01:05:02.477Z,16.62
2019-05-20T01:08:07.283Z,16.63
2019-05-20T01:11:12.180Z,16.65
2019-05-20T01:14:17.337Z,16.54
2019-05-20T01:17:22.367Z,16.49
2019-05-20T01:20:27.116Z,16.46
2019-05-20T01:23:31.834Z,16.37
2019-05-20T01:26:37.212Z,16.42
2019-05-20T01:29:41.972Z,16.24
2019-05-20T01:32:46.686Z,16.22
2019-05-20T01:35:51.824Z,16.28
2019-05-20T01:38:56.593Z,16.31
2019-05-20T01:42:01.409Z,16.27
2019-05-20T01:45:06.615Z,16.10
2019-05-20T01:48:11.610Z,15.86
2019-05-20T01:51:16.774Z,15.98
2019-05-20T01:54:21.498Z,16.00
2019-05-20T01:57:26.238Z,15.83
2019-05-20T02:00:31.686Z,15.88
2019-05-20T02:03:36.738Z,15.88
2019-05-20T02:06:41.493Z,15.90
2019-05-20T02:09:46.219Z,15.92
2019-05-20T02:12:51.246Z,15.93
2019-05-20T02:16:05.545Z,15.94
2019-05-20T02:19:10.448Z,15.95
2019-05-20T02:22:15.502Z,15.88
2019-05-20T02:25:21.320Z,15.86
2019-05-20T02:28:27.012Z,15.82
2019-05-20T02:31:31.763Z,15.72
2019-05-20T02:34:37.252Z,15.49
2019-05-20T02:37:42.052Z,15.49
2019-05-20T02:40:46.831Z,15.54
2019-05-20T02:43:51.663Z,15.56
2019-05-20T02:46:57.155Z,15.47
2019-05-20T02:50:01.957Z,15.49
2019-05-20T02:53:06.699Z,15.55
2019-05-20T02:56:11.708Z,15.48
2019-05-20T02:59:16.772Z,15.45
2019-05-20T03:02:22.119Z,15.48
2019-05-20T03:05:26.988Z,15.37
2019-05-20T03:08:31.713Z,15.36
2019-05-20T03:11:36.563Z,15.12
2019-05-20T03:14:44.268Z,15.12
2019-05-20T03:17:49.019Z,15.04
2019-05-20T03:20:55.287Z,15.12
2019-05-20T03:24:01.501Z,15.15
2019-05-20T03:27:06.181Z,15.22
2019-05-20T03:30:11.192Z,15.16
2019-05-20T03:33:15.944Z,15.03
2019-05-20T03:36:20.699Z,14.91
2019-05-20T03:39:25.430Z,14.95
2019-05-20T03:42:30.611Z,14.92
2019-05-20T03:45:35.391Z,14.92
2019-05-20T03:48:40.101Z,14.92
2019-05-20T03:51:44.855Z,14.95
2019-05-20T03:54:49.890Z,14.99
2019-05-20T03:57:54.621Z,15.00
2019-05-20T04:00:59.472Z,15.08
2019-05-20T04:04:04.299Z,15.08
2019-05-20T04:07:09.114Z,15.09
2019-05-20T04:10:14.289Z,15.07
2019-05-20T04:13:19.351Z,15.12
2019-05-20T04:16:24.421Z,15.07
2019-05-20T04:19:29.907Z,14.90
2019-05-20T04:22:34.646Z,14.89
2019-05-20T04:25:39.366Z,14.82
2019-05-20T04:28:44.115Z,14.85
2019-05-20T04:31:49.949Z,14.78
2019-05-20T04:34:54.678Z,14.77
2019-05-20T04:37:59.741Z,14.77
2019-05-20T04:41:04.768Z,14.91
2019-05-20T04:44:09.600Z,14.91
2019-05-20T04:47:14.386Z,15.02
2019-05-20T04:50:19.296Z,15.02
2019-05-20T04:53:24.343Z,14.92
2019-05-20T04:56:29.618Z,14.88
2019-05-20T04:59:34.787Z,14.88
2019-05-20T05:02:43.439Z,14.94
2019-05-20T05:05:46.740Z,14.94
2019-05-20T05:08:51.659Z,14.98
2019-05-20T05:11:57.544Z,14.94
2019-05-20T05:15:05.815Z,14.91
2019-05-20T05:18:09.895Z,14.93
2019-05-20T05:21:14.847Z,14.87
2019-05-20T05:24:19.772Z,14.88
2019-05-20T05:27:24.710Z,14.93
2019-05-20T05:30:29.717Z,15.24
2019-05-20T05:33:34.559Z,15.30
2019-05-20T05:36:39.702Z,15.33
2019-05-20T05:39:44.913Z,15.30
2019-05-20T05:42:49.968Z,15.18
2019-05-20T05:45:54.744Z,15.17
2019-05-20T05:49:00.264Z,15.26
2019-05-20T05:52:05.174Z,15.38
2019-05-20T05:55:10.122Z,15.38
2019-05-20T05:58:16.665Z,15.26
2019-05-20T06:01:21.628Z,15.18
2019-05-20T06:04:26.413Z,15.24
2019-05-20T06:07:31.269Z,15.19
2019-05-20T06:10:36.217Z,15.15
2019-05-20T06:13:41.150Z,15.14
2019-05-20T06:16:46.255Z,15.11
2019-05-20T06:19:51.361Z,15.07
2019-05-20T06:22:56.563Z,15.11
2019-05-20T06:26:01.357Z,15.10
2019-05-20T06:29:06.218Z,15.17
2019-05-20T06:32:10.987Z,15.19
2019-05-20T06:35:17.329Z,15.17
2019-05-20T06:38:40.399Z,15.17
2019-05-20T06:41:45.211Z,15.32
2019-05-20T06:44:53.157Z,15.49
2019-05-20T06:47:56.944Z,15.52
2019-05-20T06:51:01.741Z,15.57
2019-05-20T06:54:07.636Z,15.59
2019-05-20T06:57:12.842Z,15.65
2019-05-20T07:00:31.704Z,15.77
2019-05-20T07:03:36.796Z,15.87
2019-05-20T07:06:46.426Z,15.86
2019-05-20T07:09:48.189Z,15.95
2019-05-20T07:12:52.968Z,16.05
2019-05-20T07:15:58.020Z,16.27
2019-05-20T07:19:02.783Z,16.27
2019-05-20T07:22:07.565Z,16.31
2019-05-20T07:25:12.818Z,16.25
2019-05-20T07:28:17.684Z,16.28
2019-05-20T07:31:22.433Z,16.19
2019-05-20T07:34:27.786Z,16.15
2019-05-20T07:37:32.911Z,16.11
2019-05-20T07:40:37.766Z,16.03
2019-05-20T07:43:42.902Z,16.10
2019-05-20T07:46:48.147Z,16.06
2019-05-20T07:49:53.079Z,16.03
2019-05-20T07:53:00.612Z,15.97
2019-05-20T07:56:09.058Z,16.04
2019-05-20T07:59:17.194Z,16.23
2019-05-20T08:02:22.120Z,16.23
2019-05-20T08:05:26.892Z,16.32
2019-05-20T08:08:32.597Z,16.43
2019-05-20T08:11:37.541Z,16.56
2019-05-20T08:14:42.550Z,16.63
2019-05-20T08:17:47.723Z,16.63
2019-05-20T08:20:52.724Z,16.63
2019-05-20T08:23:57.568Z,16.77
2019-05-20T08:27:02.432Z,17.02
2019-05-20T08:30:08.252Z,17.02
2019-05-20T08:33:13.078Z,17.16
2019-05-20T08:36:18.221Z,17.16
2019-05-20T08:39:22.961Z,17.43
2019-05-20T08:42:27.762Z,17.67
2019-05-20T08:45:32.580Z,17.58
2019-05-20T08:48:37.662Z,17.78
2019-05-20T08:51:42.427Z,18.31
2019-05-20T08:54:47.543Z,18.16
2019-05-20T08:57:52.284Z,18.04
2019-05-20T09:00:57.393Z,17.96
2019-05-20T09:04:02.382Z,18.09
2019-05-20T09:07:07.223Z,17.97
2019-05-20T09:10:12.828Z,17.93
2019-05-20T09:13:17.967Z,18.03
2019-05-20T09:16:22.703Z,18.11
2019-05-20T09:19:27.471Z,18.04
2019-05-20T09:22:32.314Z,18.15
2019-05-20T09:25:37.064Z,18.00
2019-05-20T09:28:41.811Z,17.98
2019-05-20T09:31:47.679Z,18.09
2019-05-20T09:34:53.475Z,18.20
2019-05-20T09:37:58.243Z,18.04
2019-05-20T09:41:03.245Z,18.15
2019-05-20T09:44:08.270Z,18.18
2019-05-20T09:47:13.279Z,18.14
2019-05-20T09:50:19.084Z,18.24
2019-05-20T09:53:24.181Z,18.32
2019-05-20T09:56:30.268Z,18.32
2019-05-20T09:59:43.205Z,18.34
2019-05-20T10:02:41.663Z,18.27
2019-05-20T10:05:46.466Z,18.38
2019-05-20T10:08:51.680Z,18.42
2019-05-20T10:11:56.513Z,18.53
2019-05-20T10:15:01.488Z,18.57
2019-05-20T10:18:06.458Z,18.71
2019-05-20T10:21:11.199Z,18.81
2019-05-20T10:24:15.948Z,18.65
2019-05-20T10:27:21.348Z,18.62
2019-05-20T10:30:26.488Z,18.47
2019-05-20T10:33:36.933Z,18.51
2019-05-20T10:36:41.137Z,18.44
2019-05-20T10:39:46.380Z,18.56
2019-05-20T10:42:51.231Z,18.38
2019-05-20T10:45:56.385Z,18.48
2019-05-20T10:49:01.637Z,18.18
2019-05-20T10:52:06.459Z,18.27
2019-05-20T10:55:13.127Z,18.36
2019-05-20T10:58:17.894Z,18.39
2019-05-20T11:01:23.042Z,18.33
2019-05-20T11:04:27.835Z,18.33
2019-05-20T11:07:32.976Z,18.30
2019-05-20T11:10:37.727Z,18.25
2019-05-20T11:13:44.410Z,18.28
2019-05-20T11:16:49.463Z,18.25
2019-05-20T11:19:54.516Z,18.23
2019-05-20T11:23:01.190Z,18.22
2019-05-20T11:26:05.734Z,18.25
2019-05-20T11:29:10.771Z,18.00
2019-05-20T11:32:15.563Z,17.94
2019-05-20T11:35:20.345Z,17.84
2019-05-20T11:38:25.396Z,17.77
2019-05-20T11:41:52.148Z,17.88
2019-05-20T11:44:37.453Z,17.77
2019-05-20T11:47:43.724Z,17.58
2019-05-20T11:50:48.788Z,17.46
2019-05-20T11:53:53.938Z,17.48
2019-05-20T11:56:58.699Z,17.52
2019-05-20T12:00:04.117Z,17.77
2019-05-20T12:03:08.877Z,17.77
2019-05-20T12:06:13.658Z,17.68
2019-05-20T12:09:18.695Z,17.56
2019-05-20T12:12:23.440Z,17.83
2019-05-20T12:15:28.206Z,18.07
2019-05-20T12:18:33.284Z,18.07
2019-05-20T12:21:38.666Z,18.28
2019-05-20T12:24:43.452Z,18.33
2019-05-20T12:27:48.942Z,18.42
2019-05-20T12:30:53.975Z,18.62
2019-05-20T12:33:58.989Z,18.62
2019-05-20T12:37:03.773Z,18.70
2019-05-20T12:40:09.195Z,18.82
2019-05-20T12:43:13.979Z,18.69
2019-05-20T12:46:19.120Z,18.72
2019-05-20T12:49:24.229Z,18.69
2019-05-20T12:52:29.147Z,18.58
2019-05-20T12:55:34.005Z,18.58
2019-05-20T12:58:39.114Z,18.75
2019-05-20T13:01:43.898Z,18.92
2019-05-20T13:04:49.657Z,19.02
2019-05-20T13:07:54.720Z,18.72
2019-05-20T13:10:59.784Z,18.58
2019-05-20T13:14:04.824Z,18.57
2019-05-20T13:17:09.651Z,18.57
2019-05-20T13:20:14.885Z,18.44
2019-05-20T13:23:19.626Z,18.58
2019-05-20T13:26:24.795Z,18.74
2019-05-20T13:29:29.648Z,18.98
2019-05-20T13:32:34.452Z,18.84
2019-05-20T13:35:39.633Z,18.97
2019-05-20T13:38:44.506Z,18.88
2019-05-20T13:41:49.691Z,18.97
2019-05-20T13:44:54.573Z,18.78
2019-05-20T13:47:59.339Z,18.73
2019-05-20T13:51:04.280Z,18.68
2019-05-20T13:54:09.260Z,18.52
2019-05-20T13:57:14.096Z,18.59
2019-05-20T14:00:20.017Z,18.31
2019-05-20T14:03:24.751Z,18.40
2019-05-20T14:06:29.856Z,18.36
2019-05-20T14:09:34.570Z,18.36
2019-05-20T14:12:39.645Z,18.48
2019-05-20T14:15:44.379Z,18.55
2019-05-20T14:18:49.477Z,18.47
2019-05-20T14:21:54.625Z,18.52
2019-05-20T14:25:00.233Z,18.57
2019-05-20T14:28:05.177Z,18.53
2019-05-20T14:31:10.400Z,18.70
2019-05-20T14:34:15.563Z,18.68
2019-05-20T14:37:20.608Z,18.50
2019-05-20T14:40:25.702Z,18.63
2019-05-20T14:43:30.586Z,18.80
2019-05-20T14:46:35.612Z,18.81
2019-05-20T14:49:40.383Z,18.79
2019-05-20T14:52:45.121Z,18.55
2019-05-20T14:55:49.902Z,18.71
2019-05-20T14:58:55.846Z,18.35
2019-05-20T15:02:01.999Z,18.20
2019-05-20T15:05:07.555Z,18.01
2019-05-20T15:08:13.038Z,18.01
2019-05-20T15:11:17.901Z,17.68
2019-05-20T15:14:22.675Z,17.19
2019-05-20T15:17:28.908Z,17.19
2019-05-20T15:20:33.750Z,16.94
2019-05-20T15:23:38.479Z,16.94
2019-05-20T15:26:43.682Z,17.09
2019-05-20T15:29:49.893Z,17.09
2019-05-20T15:32:55.143Z,17.02
2019-05-20T15:36:00.293Z,17.02
2019-05-20T15:39:06.698Z,16.97
2019-05-20T15:42:11.532Z,16.89
2019-05-20T15:45:18.281Z,16.82
2019-05-20T15:48:23.419Z,16.80
2019-05-20T15:51:28.482Z,16.84
2019-05-20T15:54:33.546Z,16.96
2019-05-20T15:57:38.300Z,16.91
2019-05-20T16:00:43.073Z,17.03
2019-05-20T16:03:51.371Z,17.07
2019-05-20T16:06:54.473Z,17.05
2019-05-20T16:09:59.222Z,16.97
2019-05-20T16:13:04.092Z,17.02
2019-05-20T16:16:12.824Z,17.01
2019-05-20T16:19:15.807Z,16.92
2019-05-20T16:22:20.735Z,16.92
2019-05-20T16:25:25.526Z,16.64
2019-05-20T16:28:30.627Z,16.66
2019-05-20T16:31:35.524Z,16.51
2019-05-20T16:34:40.681Z,16.51
2019-05-20T16:37:45.600Z,16.49
2019-05-20T16:40:50.446Z,16.33
2019-05-20T16:43:55.863Z,16.17
2019-05-20T16:47:01.302Z,16.17
2019-05-20T16:50:08.300Z,16.16
2019-05-20T16:53:13.523Z,16.16
2019-05-20T16:56:18.649Z,16.18
2019-05-20T16:59:23.953Z,16.07
2019-05-20T17:02:31.625Z,16.07
2019-05-20T17:05:36.702Z,16.12
2019-05-20T17:08:41.919Z,16.15
2019-05-20T17:11:46.799Z,16.28
2019-05-20T17:14:52.030Z,16.39
2019-05-20T17:17:56.827Z,16.39
2019-05-20T17:21:01.973Z,16.57
2019-05-20T17:24:06.906Z,16.69
2019-05-20T17:27:12.274Z,16.47
2019-05-20T17:30:17.544Z,16.47
2019-05-20T17:33:22.774Z,16.38
2019-05-20T17:36:27.573Z,16.36
2019-05-20T17:39:32.550Z,16.43
2019-05-20T17:42:37.872Z,16.42
2019-05-20T17:45:43.095Z,16.47
2019-05-20T17:48:48.007Z,16.44
2019-05-20T17:51:52.826Z,16.35
2019-05-20T17:54:57.609Z,16.36
2019-05-20T17:58:02.521Z,16.41
2019-05-20T18:01:15.325Z,16.36
2019-05-20T18:04:14.452Z,16.36
2019-05-20T18:07:19.357Z,16.31
2019-05-20T18:10:25.404Z,16.35
2019-05-20T18:13:31.600Z,16.36
2019-05-20T18:16:36.729Z,16.33
2019-05-20T18:19:42.580Z,16.32
2019-05-20T18:22:47.796Z,16.21
2019-05-20T18:25:52.886Z,16.21
2019-05-20T18:28:58.466Z,16.20
2019-05-20T18:32:03.283Z,16.17
2019-05-20T18:35:08.690Z,16.13
2019-05-20T18:38:14.081Z,16.12
2019-05-20T18:41:20.319Z,16.10
2019-05-20T18:44:25.508Z,16.06
2019-05-20T18:47:30.595Z,16.09
2019-05-20T18:50:35.382Z,16.12
2019-05-20T18:53:40.177Z,16.21
2019-05-20T18:56:45.367Z,16.17
2019-05-20T18:59:50.173Z,16.17
2019-05-20T19:02:55.032Z,16.16
2019-05-20T19:06:00.123Z,16.10
2019-05-20T19:09:06.443Z,16.21
2019-05-20T19:12:11.978Z,16.17
2019-05-20T19:15:17.663Z,16.19
2019-05-20T19:18:22.479Z,16.16
2019-05-20T19:21:27.270Z,16.16
2019-05-20T19:24:32.563Z,16.12
2019-05-20T19:27:38.792Z,16.05
2019-05-20T19:30:43.834Z,16.05
2019-05-20T19:33:48.935Z,16.07
2019-05-20T19:36:54.068Z,16.08
2019-05-20T19:39:58.913Z,15.98
2019-05-20T19:43:03.699Z,15.98
2019-05-20T19:46:08.966Z,15.96
2019-05-20T19:49:13.991Z,15.79
2019-05-20T19:52:18.929Z,15.66
2019-05-20T19:55:23.994Z,15.46
2019-05-20T19:58:28.996Z,15.24
2019-05-20T20:01:34.273Z,14.98
2019-05-20T20:04:39.733Z,14.78
2019-05-20T20:07:46.031Z,14.77
2019-05-20T20:10:50.980Z,14.71
2019-05-20T20:13:55.920Z,14.72
2019-05-20T20:17:00.744Z,14.74
2019-05-20T20:20:05.902Z,14.72
2019-05-20T20:23:10.657Z,14.62
2019-05-20T20:26:15.755Z,14.56
2019-05-20T20:29:20.503Z,14.50
2019-05-20T20:32:37.268Z,14.70
2019-05-20T20:35:38.115Z,14.49
2019-05-20T20:38:39.172Z,14.55
2019-05-20T20:41:44.419Z,14.59
2019-05-20T20:44:49.541Z,14.58
2019-05-20T20:47:54.280Z,14.71
2019-05-20T20:50:59.047Z,14.80
2019-05-20T20:54:04.373Z,15.00
2019-05-20T20:57:09.339Z,15.09
2019-05-20T21:00:14.812Z,14.82
2019-05-20T21:03:22.432Z,14.93
2019-05-20T21:06:27.489Z,14.84
2019-05-20T21:09:32.615Z,14.62
2019-05-20T21:12:37.504Z,14.48
2019-05-20T21:15:42.555Z,14.48
2019-05-20T21:18:47.359Z,14.70
2019-05-20T21:21:52.350Z,14.63
2019-05-20T21:24:57.185Z,14.73
2019-05-20T21:28:01.954Z,14.56
2019-05-20T21:31:06.940Z,14.61
2019-05-20T21:34:11.951Z,14.63
2019-05-20T21:37:16.741Z,14.65
2019-05-20T21:40:21.579Z,14.60
2019-05-20T21:43:26.758Z,14.70
2019-05-20T21:46:31.911Z,14.73
2019-05-20T21:49:36.673Z,14.71
2019-05-20T21:52:42.031Z,14.72
2019-05-20T21:55:47.379Z,14.73
2019-05-20T21:58:52.211Z,14.73
2019-05-20T22:01:57.279Z,14.72
2019-05-20T22:05:02.733Z,14.72
2019-05-20T22:08:09.399Z,14.71
2019-05-20T22:11:14.271Z,14.75
2019-05-20T22:14:20.172Z,14.76
2019-05-20T22:17:25.343Z,14.69
2019-05-20T22:20:30.700Z,14.80
2019-05-20T22:24:00.868Z,14.82
2019-05-20T22:27:06.601Z,14.83
2019-05-20T22:30:11.869Z,14.92
2019-05-20T22:33:16.624Z,14.85
2019-05-20T22:36:21.581Z,14.74
2019-05-20T22:39:27.392Z,14.71
2019-05-20T22:42:32.158Z,14.71
2019-05-20T22:45:36.987Z,14.61
2019-05-20T22:48:41.866Z,14.68
2019-05-20T22:51:46.606Z,14.72
2019-05-20T22:54:51.457Z,14.77
2019-05-20T22:57:56.266Z,14.75
2019-05-20T23:01:01.187Z,14.72
2019-05-20T23:04:05.918Z,14.59
2019-05-20T23:07:10.759Z,14.71
2019-05-20T23:10:16.251Z,14.73
2019-05-20T23:13:21.670Z,14.74
2019-05-20T23:16:26.430Z,14.77
2019-05-20T23:19:31.243Z,14.67
2019-05-20T23:22:36.340Z,14.55
2019-05-20T23:25:41.144Z,14.48
2019-05-20T23:28:45.881Z,14.56
2019-05-20T23:31:50.654Z,14.60
2019-05-20T23:34:55.716Z,14.51
2019-05-20T23:38:00.481Z,14.43
2019-05-20T23:41:05.316Z,14.41
2019-05-20T23:44:10.099Z,14.50
2019-05-20T23:47:15.137Z,14.70
2019-05-20T23:50:20.086Z,14.65
2019-05-20T23:53:24.855Z,14.70
2019-05-20T23:56:29.611Z,14.71
2019-05-20T23:59:34.373Z,14.71
